Time;durP1;ratioP1;P1;durP2;ratioP2;P2;SDS_P1;SDS_P2;PMS_P1;PMS_P2;Temp;Humidity;BMP_temperature;BMP_pressure;BME280_temperature;BME280_humidity;BME280_pressure;Samples;Min_cycle;Max_cycle;Signal;HPM_P1;HPM_P2
2022/06/23 00:01:26;;;;;;;11.82;6.72;;;;;;;16.84;100.00;101280.94;5031888;28;20044;-89
2022/06/23 00:03:56;;;;;;;11.27;6.57;;;;;;;16.83;100.00;101279.19;5031809;28;20130;-88
2022/06/23 00:06:22;;;;;;;15.37;7.17;;;;;;;16.83;100.00;101291.72;5033352;28;20116;-89
2022/06/23 00:08:47;;;;;;;12.77;6.78;;;;;;;16.82;100.00;101287.34;5032000;28;20095;-88
2022/06/23 00:11:23;;;;;;;13.07;6.53;;;;;;;16.78;100.00;101292.00;5015320;28;20032;-88
2022/06/23 00:13:49;;;;;;;11.13;6.65;;;;;;;16.74;100.00;101285.16;5032953;28;20029;-87
2022/06/23 00:16:24;;;;;;;13.02;6.82;;;;;;;16.71;100.00;101279.97;5032040;28;20040;-87
2022/06/23 00:18:49;;;;;;;13.15;6.70;;;;;;;16.68;100.00;101272.16;5031825;28;20053;-87
2022/06/23 00:21:18;;;;;;;12.77;6.38;;;;;;;16.69;100.00;101271.22;5015371;28;20123;-88
2022/06/23 00:23:49;;;;;;;15.45;7.18;;;;;;;16.62;100.00;101264.53;5032931;28;20026;-88
2022/06/23 00:26:19;;;;;;;;;;;;;;;16.57;100.00;101266.63;5033866;28;20024;-88
2022/06/23 00:28:47;;;;;;;14.65;6.75;;;;;;;16.52;100.00;101272.25;5032171;28;19909;-88
2022/06/23 00:31:59;;;;;;;10.75;6.43;;;;;;;16.48;100.00;101266.28;5031742;28;20021;-90
2022/06/23 00:34:34;;;;;;;12.25;7.30;;;;;;;16.45;100.00;101263.78;5031161;28;20037;-88
2022/06/23 00:37:13;;;;;;;13.88;7.75;;;;;;;16.40;100.00;101260.53;5031799;28;20026;-90
2022/06/23 00:39:47;;;;;;;16.70;6.80;;;;;;;16.36;100.00;101257.19;5031622;28;20025;-89
2022/06/23 00:42:32;;;;;;;14.50;6.72;;;;;;;16.33;100.00;101251.19;5031574;28;20076;-88
2022/06/23 00:45:10;;;;;;;13.10;7.10;;;;;;;16.28;100.00;101262.19;5031826;28;20029;-89
2022/06/23 00:47:41;;;;;;;11.63;6.80;;;;;;;16.25;100.00;101264.16;5031820;28;20034;-88
2022/06/23 00:50:27;;;;;;;10.57;6.60;;;;;;;16.21;100.00;101263.50;5033204;28;20029;-88
2022/06/23 00:53:10;;;;;;;16.23;7.25;;;;;;;16.16;100.00;101253.13;5035420;28;20112;-88
2022/06/23 00:56:06;;;;;;;11.73;6.93;;;;;;;16.16;100.00;101250.44;5036535;28;20037;-88
2022/06/23 00:58:32;;;;;;;11.30;7.15;;;;;;;16.12;100.00;101254.22;5035514;28;20033;-88
2022/06/23 01:01:15;;;;;;;11.18;7.25;;;;;;;16.10;100.00;101255.28;5034356;28;20036;-88
2022/06/23 01:03:50;;;;;;;11.73;7.05;;;;;;;16.03;100.00;101254.81;5033977;28;20026;-88
2022/06/23 01:06:25;;;;;;;12.35;6.85;;;;;;;16.02;100.00;101247.75;5033914;28;20037;-88
2022/06/23 01:09:15;;;;;;;12.18;6.53;;;;;;;16.02;100.00;101250.41;5033971;28;20065;-87
2022/06/23 01:11:55;;;;;;;14.27;7.68;;;;;;;15.97;100.00;101241.81;5035006;28;20053;-88
2022/06/23 01:14:38;;;;;;;10.40;6.93;;;;;;;15.93;100.00;101240.31;5033503;28;20072;-88
2022/06/23 01:17:26;;;;;;;14.02;7.32;;;;;;;15.87;100.00;101252.22;5033915;28;20033;-87
2022/06/23 01:20:10;;;;;;;10.05;6.80;;;;;;;15.87;100.00;101253.06;5036292;28;20030;-82
2022/06/23 01:22:49;;;;;;;12.85;7.13;;;;;;;15.84;100.00;101244.38;5034491;28;20060;-82
2022/06/23 01:25:41;;;;;;;12.30;7.70;;;;;;;15.82;100.00;101240.94;5033213;28;20041;-82
2022/06/23 01:28:17;;;;;;;14.95;7.47;;;;;;;15.77;100.00;101249.22;5017130;28;20510;-83
2022/06/23 01:31:03;;;;;;;11.63;7.07;;;;;;;15.79;100.00;101255.28;5025627;28;20116;-83
2022/06/23 01:34:02;;;;;;;16.02;7.28;;;;;;;15.78;100.00;101258.06;5026204;28;20037;-84
2022/06/23 01:36:40;;;;;;;13.10;7.03;;;;;;;15.80;100.00;101254.34;5020430;28;20442;-82
2022/06/23 01:39:18;;;;;;;16.45;7.68;;;;;;;15.76;100.00;101258.16;5034452;28;20029;-80
2022/06/23 01:42:06;;;;;;;12.85;7.38;;;;;;;15.72;100.00;101265.50;5033772;28;20119;-83
2022/06/23 01:44:46;;;;;;;12.82;7.65;;;;;;;15.70;100.00;101263.88;5032993;28;20623;-83
2022/06/23 01:47:35;;;;;;;14.20;7.20;;;;;;;15.68;100.00;101255.97;5032866;28;20059;-82
2022/06/23 01:50:12;;;;;;;11.57;7.60;;;;;;;15.64;100.00;101262.44;5033255;28;20112;-82
2022/06/23 01:52:40;;;;;;;12.23;7.68;;;;;;;15.61;100.00;101257.25;5032858;28;20466;-83
2022/06/23 01:55:19;;;;;;;15.07;7.55;;;;;;;15.58;100.00;101249.44;5017117;28;20064;-83
2022/06/23 01:57:52;;;;;;;14.95;7.82;;;;;;;15.54;100.00;101254.09;4993893;28;1230916;-81
2022/06/23 02:00:21;;;;;;;10.75;7.65;;;;;;;15.56;100.00;101251.34;5031481;28;20026;-82
2022/06/23 02:02:56;;;;;;;10.43;7.15;;;;;;;15.55;100.00;101242.47;5044724;28;20026;-82
2022/06/23 02:05:36;;;;;;;11.95;7.35;;;;;;;15.52;100.00;101253.31;5034501;28;20025;-84
2022/06/23 02:08:02;;;;;;;14.77;7.72;;;;;;;15.48;100.00;101246.47;5035250;28;20022;-83
2022/06/23 02:10:51;;;;;;;13.18;7.25;;;;;;;15.45;100.00;101240.44;5034006;28;20099;-83
2022/06/23 02:13:29;;;;;;;11.27;7.15;;;;;;;15.42;100.00;101243.28;5033054;28;20026;-83
2022/06/23 02:16:21;;;;;;;13.27;7.07;;;;;;;15.35;100.00;101240.97;5034143;28;20029;-83
2022/06/23 02:19:21;;;;;;;12.82;7.95;;;;;;;15.32;100.00;101235.84;5037190;28;20116;-82
2022/06/23 02:21:59;;;;;;;12.07;7.28;;;;;;;15.34;100.00;101233.91;5035348;28;20112;-84
2022/06/23 02:24:49;;;;;;;10.77;7.10;;;;;;;15.33;100.00;101236.69;5033415;28;20025;-83
2022/06/23 02:27:24;;;;;;;13.48;7.40;;;;;;;15.32;100.00;101234.97;5014159;28;20083;-84
2022/06/23 02:29:52;;;;;;;15.98;7.60;;;;;;;15.32;100.00;101237.63;5048114;28;20029;-84
2022/06/23 02:32:30;;;;;;;12.73;7.90;;;;;;;15.30;100.00;101237.72;5033676;28;20033;-83
2022/06/23 02:35:08;;;;;;;12.45;7.88;;;;;;;15.30;100.00;101245.72;5033755;28;20634;-83
2022/06/23 02:37:55;;;;;;;14.63;7.88;;;;;;;15.30;100.00;101235.06;5033952;28;20112;-84
2022/06/23 02:40:42;;;;;;;14.77;8.15;;;;;;;15.29;100.00;101243.16;5033892;28;20112;-84
2022/06/23 02:43:14;;;;;;;13.10;7.63;;;;;;;15.27;100.00;101239.72;5034170;28;20089;-83
2022/06/23 02:45:48;;;;;;;11.25;7.18;;;;;;;15.28;100.00;101238.75;5035322;28;20018;-83
2022/06/23 02:48:47;;;;;;;17.05;7.60;;;;;;;15.26;100.00;101230.84;5034672;28;20041;-82
2022/06/23 02:51:19;;;;;;;16.63;7.72;;;;;;;15.22;100.00;101221.31;5019104;28;20087;-82
2022/06/23 02:53:59;;;;;;;12.15;7.53;;;;;;;15.18;100.00;101227.75;5040857;28;20025;-83
2022/06/23 02:56:50;;;;;;;10.75;7.28;;;;;;;15.17;100.00;101223.41;5034276;28;20056;-82
2022/06/23 02:59:33;;;;;;;12.17;7.90;;;;;;;15.13;100.00;101227.16;5034152;28;20120;-82
2022/06/23 03:02:26;;;;;;;10.88;7.95;;;;;;;15.11;100.00;101216.59;5034287;28;20095;-82
2022/06/23 03:05:01;;;;;;;15.00;7.63;;;;;;;15.10;100.00;101206.88;5033953;28;20504;-83
2022/06/23 03:07:41;;;;;;;11.85;8.38;;;;;;;15.11;100.00;101205.06;5033116;28;20512;-82
2022/06/23 03:10:37;;;;;;;12.73;8.02;;;;;;;15.10;100.00;101204.19;5033246;28;20029;-83
2022/06/23 03:13:16;;;;;;;14.52;8.43;;;;;;;15.10;100.00;101201.53;5011211;28;20033;-83
2022/06/23 03:16:00;;;;;;;17.15;7.85;;;;;;;15.09;100.00;101213.19;5032737;28;20532;-84
2022/06/23 03:18:29;;;;;;;17.10;7.82;;;;;;;15.09;100.00;101202.50;5034175;28;20044;-83
2022/06/23 03:21:05;;;;;;;12.00;7.50;;;;;;;15.11;100.00;101199.75;5032752;28;20030;-83
2022/06/23 03:23:37;;;;;;;16.20;7.90;;;;;;;15.09;100.00;101197.16;5032819;28;20022;-84
2022/06/23 03:26:26;;;;;;;14.43;8.38;;;;;;;15.06;100.00;101200.88;5033995;28;20033;-83
2022/06/23 03:29:22;;;;;;;12.85;8.00;;;;;;;15.07;100.00;101193.72;5014357;28;20115;-83
2022/06/23 03:32:06;;;;;;;13.00;7.90;;;;;;;15.06;100.00;101192.88;5026718;28;20032;-84
2022/06/23 03:35:09;;;;;;;14.23;8.18;;;;;;;15.04;100.00;101191.25;5033191;28;20032;-84
2022/06/23 03:38:05;;;;;;;11.55;7.07;;;;;;;15.10;100.00;101185.53;5033113;28;20029;-83
2022/06/23 03:43:33;;;;;;;14.70;8.32;;;;;;;15.10;100.00;101195.34;5034579;28;20504;-83
2022/06/23 03:46:21;;;;;;;14.60;8.10;;;;;;;15.12;100.00;101177.47;5033196;28;20167;-83
2022/06/23 03:48:54;;;;;;;15.95;8.60;;;;;;;15.12;100.00;101177.47;5034210;28;20029;-83
2022/06/23 03:51:31;;;;;;;12.45;8.00;;;;;;;15.16;100.00;101174.50;5033729;28;20057;-83
2022/06/23 03:53:56;;;;;;;14.63;8.30;;;;;;;15.17;100.00;101181.56;5033344;28;20504;-84
2022/06/23 03:56:25;;;;;;;14.23;7.65;;;;;;;15.17;100.00;101184.22;5032146;28;20046;-83
2022/06/23 03:59:05;;;;;;;13.00;8.23;;;;;;;15.19;100.00;101186.81;5033175;28;20064;-84
2022/06/23 04:01:31;;;;;;;13.43;8.52;;;;;;;15.20;100.00;101183.19;5031919;28;20075;-84
2022/06/23 04:04:03;;;;;;;13.75;8.05;;;;;;;15.22;100.00;101174.16;5031893;28;20492;-84
2022/06/23 04:06:39;;;;;;;13.77;8.43;;;;;;;15.26;100.00;101173.97;5031992;28;20382;-83
2022/06/23 04:09:17;;;;;;;13.20;8.40;;;;;;;15.33;100.00;101169.97;5033067;28;20017;-83
2022/06/23 04:12:02;;;;;;;11.55;7.80;;;;;;;15.37;100.00;101163.50;5031992;28;20083;-83
2022/06/23 04:14:37;;;;;;;13.32;7.82;;;;;;;15.40;100.00;101168.69;5031828;28;20025;-83
2022/06/23 04:17:19;;;;;;;13.23;8.27;;;;;;;15.40;100.00;101163.34;5031909;28;20029;-83
2022/06/23 04:19:49;;;;;;;12.60;8.20;;;;;;;15.43;100.00;101172.97;5032034;28;20031;-83
2022/06/23 04:22:24;;;;;;;12.13;7.83;;;;;;;15.48;100.00;101160.22;5033353;28;20025;-83
2022/06/23 04:24:55;;;;;;;12.73;7.70;;;;;;;15.54;100.00;101162.50;5032252;28;20036;-83
2022/06/23 04:27:37;;;;;;;16.70;8.07;;;;;;;15.55;100.00;101164.22;5032650;28;20473;-83
2022/06/23 04:30:03;;;;;;;12.40;7.88;;;;;;;15.61;100.00;101161.16;5033566;28;20021;-83
2022/06/23 04:32:34;;;;;;;16.65;8.20;;;;;;;15.62;100.00;101157.53;5032012;28;20029;-84
2022/06/23 04:35:10;;;;;;;14.53;7.40;;;;;;;15.65;100.00;101165.38;5031299;28;20393;-83
2022/06/23 04:37:36;;;;;;;12.80;7.97;;;;;;;15.67;100.00;101163.47;5032687;28;20272;-83
2022/06/23 04:40:17;;;;;;;16.10;8.55;;;;;;;15.67;100.00;101159.94;5032820;28;20029;-83
2022/06/23 04:43:05;;;;;;;13.63;8.23;;;;;;;15.74;100.00;101161.25;5031296;28;20026;-84
2022/06/23 04:45:55;;;;;;;14.35;7.30;;;;;;;15.78;100.00;101156.59;5032726;28;20116;-83
2022/06/23 04:48:39;;;;;;;14.50;7.72;;;;;;;15.81;100.00;101168.00;5031365;28;20037;-83
2022/06/23 04:51:34;;;;;;;13.77;7.65;;;;;;;15.86;100.00;101163.22;5026256;28;20029;-82
2022/06/23 04:54:04;;;;;;;13.70;7.65;;;;;;;15.99;100.00;101159.81;5027154;28;20125;-83
2022/06/23 04:56:30;;;;;;;12.10;7.37;;;;;;;15.97;100.00;101162.56;5032390;28;20496;-83
2022/06/23 04:59:02;;;;;;;13.65;7.95;;;;;;;15.98;100.00;101156.25;5031417;28;20272;-83
2022/06/23 05:01:36;;;;;;;14.13;7.88;;;;;;;15.98;100.00;101145.56;5032509;28;20371;-82
2022/06/23 05:04:03;;;;;;;13.45;7.90;;;;;;;16.02;100.00;101154.25;5031419;28;20076;-83
2022/06/23 05:06:38;;;;;;;14.00;7.70;;;;;;;16.10;100.00;101168.00;5031549;28;20029;-83
2022/06/23 05:09:33;;;;;;;13.07;7.65;;;;;;;16.24;100.00;101183.16;5021763;28;20116;-83
2022/06/23 05:12:19;;;;;;;12.32;7.68;;;;;;;16.38;100.00;101183.13;5014590;28;20075;-84
2022/06/23 05:14:47;;;;;;;12.00;7.63;;;;;;;16.40;100.00;101177.69;5030397;28;20163;-84
2022/06/23 05:17:24;;;;;;;14.15;7.35;;;;;;;16.48;100.00;101179.88;5020938;28;20033;-84
2022/06/23 05:19:54;;;;;;;11.65;7.35;;;;;;;16.61;100.00;101174.56;5031201;28;20034;-84
2022/06/23 05:22:38;;;;;;;14.20;7.55;;;;;;;16.70;100.00;101171.28;5032510;28;20026;-84
2022/06/23 05:25:19;;;;;;;14.98;8.00;;;;;;;16.74;100.00;101171.97;5017735;28;20553;-84
2022/06/23 05:27:48;;;;;;;15.77;7.85;;;;;;;16.74;100.00;101174.63;5031206;28;20029;-84
2022/06/23 05:30:33;;;;;;;16.38;7.97;;;;;;;16.74;100.00;101177.31;5031316;28;20025;-84
2022/06/23 05:33:11;;;;;;;14.52;7.25;;;;;;;16.77;100.00;101171.78;5030622;28;20032;-84
2022/06/23 05:35:44;;;;;;;12.52;7.70;;;;;;;16.86;100.00;101169.31;5025860;28;20026;-84
2022/06/23 05:38:37;;;;;;;14.90;7.72;;;;;;;16.96;100.00;101172.28;5025441;28;20060;-83
2022/06/23 05:41:23;;;;;;;12.48;7.32;;;;;;;17.05;100.00;101184.22;5014758;28;20032;-83
2022/06/23 05:43:51;;;;;;;14.35;7.63;;;;;;;17.08;100.00;101167.94;5018557;28;20032;-83
2022/06/23 05:46:21;;;;;;;15.10;7.75;;;;;;;17.04;100.00;101163.75;5035516;28;20064;-83
2022/06/23 05:49:13;;;;;;;14.07;7.53;;;;;;;17.12;100.00;101161.44;5035881;28;20029;-83
2022/06/23 05:51:55;;;;;;;12.23;8.15;;;;;;;17.14;100.00;101169.34;5034158;28;20033;-84
2022/06/23 05:54:29;;;;;;;12.60;7.93;;;;;;;17.25;100.00;101174.84;5035381;28;20029;-84
2022/06/23 05:57:09;;;;;;;11.95;7.55;;;;;;;17.31;100.00;101178.91;5033787;28;20118;-84
2022/06/23 05:59:55;;;;;;;12.13;7.57;;;;;;;17.38;100.00;101180.22;5034288;28;20094;-84
2022/06/23 06:02:28;;;;;;;13.38;8.05;;;;;;;17.44;100.00;101177.13;5034148;28;20021;-84
2022/06/23 06:04:57;;;;;;;9.95;7.43;;;;;;;17.47;100.00;101181.41;5031912;28;20030;-84
2022/06/23 06:07:32;;;;;;;11.77;7.53;;;;;;;17.55;100.00;101171.03;5034204;28;20503;-83
2022/06/23 06:09:59;;;;;;;11.45;7.25;;;;;;;17.66;100.00;101162.22;5033638;28;20025;-75
2022/06/23 06:12:32;;;;;;;12.07;8.05;;;;;;;17.72;100.00;101172.50;5034914;28;20056;-75
2022/06/23 06:15:04;;;;;;;10.70;7.55;;;;;;;17.84;100.00;101178.84;5032957;28;20021;-76
2022/06/23 06:17:32;;;;;;;13.38;7.97;;;;;;;17.91;100.00;101164.03;5029726;28;20424;-76
2022/06/23 06:20:04;;;;;;;10.85;7.90;;;;;;;17.91;100.00;101156.00;5016157;28;20492;-76
2022/06/23 06:22:32;;;;;;;;;;;;;;;17.96;100.00;101167.28;5033306;28;20115;-75
2022/06/23 06:25:00;;;;;;;11.98;7.60;;;;;;;17.99;99.65;101151.00;5033652;28;19975;-76
2022/06/23 06:27:26;;;;;;;15.90;7.47;;;;;;;18.10;99.55;101155.59;5028387;28;20608;-76
2022/06/23 06:29:52;;;;;;;12.25;7.60;;;;;;;18.20;99.00;101158.47;5027911;28;20030;-77
2022/06/23 06:32:33;;;;;;;12.65;8.27;;;;;;;18.25;98.75;101145.59;5032074;28;20033;-77
2022/06/23 06:35:15;;;;;;;11.73;7.50;;;;;;;18.32;98.21;101151.34;5033799;28;20025;-76
2022/06/23 06:37:49;;;;;;;16.42;7.90;;;;;;;18.41;98.50;101141.78;5030525;28;20029;-78
2022/06/23 06:40:15;;;;;;;15.98;7.60;;;;;;;18.49;98.03;101139.38;5034284;28;20035;-78
2022/06/23 06:42:47;;;;;;;13.48;7.20;;;;;;;18.56;96.91;101137.97;5015757;28;20124;-76
2022/06/23 06:45:17;;;;;;;11.65;7.07;;;;;;;18.72;96.42;101143.06;5034324;28;20029;-76
2022/06/23 06:47:44;;;;;;;10.63;6.95;;;;;;;18.80;96.15;101135.28;5032518;28;20034;-77
2022/06/23 06:50:19;;;;;;;12.55;7.38;;;;;;;18.95;94.49;101127.06;5043134;28;20022;-76
2022/06/23 06:52:49;;;;;;;14.73;7.50;;;;;;;19.07;93.41;101128.84;5032916;28;20037;-77
2022/06/23 06:55:26;;;;;;;10.77;6.95;;;;;;;19.13;93.37;101132.88;5016390;28;20112;-77
2022/06/23 06:57:55;;;;;;;11.02;7.03;;;;;;;19.25;93.43;101129.25;5031803;28;20057;-77
2022/06/23 07:00:26;;;;;;;10.05;6.53;;;;;;;19.36;92.74;101130.25;5029199;28;20345;-76
2022/06/23 07:02:59;;;;;;;10.63;6.93;;;;;;;19.45;91.80;101126.84;5032625;28;20366;-76
2022/06/23 07:05:31;;;;;;;13.00;7.70;;;;;;;19.55;91.81;101130.53;5032462;28;20032;-76
2022/06/23 07:08:18;;;;;;;13.82;7.13;;;;;;;19.64;91.20;101137.00;5033679;28;20044;-74
2022/06/23 07:10:57;;;;;;;12.05;7.55;;;;;;;19.74;90.99;101139.84;5032549;28;20079;-76
2022/06/23 07:13:40;;;;;;;14.60;7.55;;;;;;;19.82;89.55;101156.22;5032571;28;20029;-75
2022/06/23 07:16:28;;;;;;;13.65;6.70;;;;;;;19.94;89.35;101149.03;5049113;28;20036;-76
2022/06/23 07:19:01;;;;;;;12.88;7.43;;;;;;;20.02;89.17;101146.56;5032452;28;20112;-76
2022/06/23 07:21:34;;;;;;;14.15;7.43;;;;;;;20.12;88.76;101139.47;5032149;28;20042;-76
2022/06/23 07:24:29;;;;;;;13.52;7.60;;;;;;;20.24;88.66;101142.16;5032488;28;20104;-85
2022/06/23 07:26:57;;;;;;;14.05;7.20;;;;;;;20.30;86.92;101150.56;5034159;28;20028;-83
2022/06/23 07:29:39;;;;;;;12.02;7.75;;;;;;;20.37;86.91;101142.00;5049984;28;20037;-84
2022/06/23 07:32:05;;;;;;;14.32;8.10;;;;;;;20.44;86.32;101133.31;5034449;28;20481;-84
2022/06/23 07:34:36;;;;;;;12.48;7.10;;;;;;;20.57;85.82;101141.22;5036233;28;20040;-84
2022/06/23 07:37:18;;;;;;;13.60;8.07;;;;;;;20.68;84.65;101139.47;5034255;28;20029;-82
2022/06/23 07:39:47;;;;;;;12.02;6.90;;;;;;;20.82;85.02;101139.25;5034715;28;20021;-85
2022/06/23 07:42:38;;;;;;;12.20;7.15;;;;;;;20.94;83.66;101142.72;5036172;28;20017;-84
2022/06/23 07:45:22;;;;;;;11.50;7.43;;;;;;;20.89;81.69;101151.19;5036855;28;20049;-84
2022/06/23 07:47:48;;;;;;;12.25;7.00;;;;;;;21.05;80.71;101152.56;5035850;28;20063;-84
2022/06/23 07:50:13;;;;;;;11.63;7.05;;;;;;;21.14;80.55;101140.19;5035071;28;20112;-86
2022/06/23 07:52:41;;;;;;;11.63;7.20;;;;;;;21.31;80.82;101145.00;5051707;28;20101;-83
2022/06/23 07:55:15;;;;;;;10.25;6.63;;;;;;;21.44;79.48;101151.03;5030206;28;20026;-84
2022/06/23 07:57:40;;;;;;;14.73;6.97;;;;;;;21.57;80.01;101141.91;5021604;28;20041;-84
2022/06/23 08:00:07;;;;;;;9.65;6.97;;;;;;;21.74;80.24;101138.59;5017900;28;20123;-84
2022/06/23 08:02:39;;;;;;;11.63;6.85;;;;;;;21.84;77.88;101137.78;5017447;28;20025;-84
2022/06/23 08:05:17;;;;;;;12.15;6.53;;;;;;;21.93;78.10;101136.97;5031978;28;20045;-84
2022/06/23 08:07:44;;;;;;;17.30;7.43;;;;;;;22.03;77.50;101134.31;5032482;28;20026;-84
2022/06/23 08:10:15;;;;;;;12.77;7.68;;;;;;;22.16;76.50;101132.25;5015842;28;20037;-84
2022/06/23 08:12:53;;;;;;;11.63;7.65;;;;;;;22.20;76.96;101139.06;5028010;28;20385;-85
2022/06/23 08:18:10;;;;;;;14.00;8.32;;;;;;;22.08;77.56;101135.63;5033326;28;20107;-85
2022/06/23 08:20:42;;;;;;;13.48;8.68;;;;;;;22.20;76.50;101143.59;5031911;28;20453;-84
2022/06/23 08:23:11;;;;;;;16.50;8.13;;;;;;;22.37;76.41;101134.88;5032889;28;20032;-84
2022/06/23 08:25:37;;;;;;;11.25;7.53;;;;;;;22.67;76.74;101132.22;5033299;28;20029;-83
2022/06/23 08:28:05;;;;;;;13.98;8.77;;;;;;;22.87;76.18;101119.59;5031827;28;20400;-84
2022/06/23 08:30:36;;;;;;;11.95;7.65;;;;;;;23.20;75.25;101130.97;5033439;28;20041;-84
2022/06/23 08:33:03;;;;;;;14.02;8.52;;;;;;;23.41;73.07;101119.94;5031706;28;20369;-84
2022/06/23 08:35:42;;;;;;;10.77;7.85;;;;;;;23.76;73.25;101115.72;5031683;28;20028;-84
2022/06/23 08:38:18;;;;;;;12.18;8.63;;;;;;;24.19;70.39;101114.25;5031762;28;20057;-84
2022/06/23 08:41:14;;;;;;;13.10;8.30;;;;;;;24.63;70.66;101118.94;5018789;28;20021;-85
2022/06/23 08:43:54;;;;;;;12.10;8.02;;;;;;;25.26;67.59;101117.13;5031049;28;20041;-85
2022/06/23 08:46:42;;;;;;;14.13;7.78;;;;;;;26.68;64.44;101112.16;5031544;28;20428;-85
2022/06/23 08:49:22;;;;;;;14.25;8.10;;;;;;;28.06;54.86;101111.31;5017853;28;20022;-84
2022/06/23 08:52:02;;;;;;;12.27;7.13;;;;;;;29.07;49.28;101119.50;5031669;28;20477;-84
2022/06/23 08:54:36;;;;;;;12.18;7.13;;;;;;;29.94;46.14;101119.13;5023964;28;20021;-85
2022/06/23 08:57:14;;;;;;;12.68;7.63;;;;;;;30.41;43.90;101109.59;5031260;28;20493;-84
2022/06/23 08:59:52;;;;;;;10.10;7.05;;;;;;;30.68;42.79;101110.75;5023017;28;20071;-85
2022/06/23 09:02:32;;;;;;;12.73;7.22;;;;;;;30.97;41.98;101106.16;5025486;28;20021;-84
2022/06/23 09:05:09;;;;;;;11.52;6.63;;;;;;;30.65;42.19;101102.91;5021387;28;20389;-84
2022/06/23 09:07:53;;;;;;;13.73;7.88;;;;;;;30.24;42.81;101106.25;5025242;28;20040;-85
2022/06/23 09:10:29;;;;;;;13.07;8.15;;;;;;;30.51;42.10;101110.16;5031642;28;20439;-84
2022/06/23 09:13:18;;;;;;;13.30;6.68;;;;;;;30.71;43.02;101106.78;5034712;28;20079;-84
2022/06/23 09:16:10;;;;;;;14.55;6.88;;;;;;;31.14;41.89;101112.22;5035199;28;20124;-84
2022/06/23 09:19:00;;;;;;;14.18;7.13;;;;;;;31.05;41.64;101103.31;5035318;28;20124;-83
2022/06/23 09:21:38;;;;;;;13.35;7.18;;;;;;;31.51;41.94;101103.81;5036469;28;20037;-83
2022/06/23 09:24:26;;;;;;;14.73;7.32;;;;;;;31.74;40.90;101100.00;5036007;28;20025;-84
2022/06/23 09:27:01;;;;;;;12.68;7.80;;;;;;;31.98;40.51;101091.25;5036750;28;20029;-82
2022/06/23 09:29:38;;;;;;;12.02;7.78;;;;;;;31.78;41.74;101098.53;5036386;28;20025;-85
2022/06/23 09:32:16;;;;;;;16.77;7.63;;;;;;;31.91;40.97;101098.59;5035549;28;20025;-86
2022/06/23 09:35:06;;;;;;;11.45;7.80;;;;;;;31.72;41.50;101100.19;5049554;28;20040;-84
2022/06/23 09:38:09;;;;;;;11.45;6.80;;;;;;;32.21;41.66;101098.31;5044796;28;20029;-85
2022/06/23 09:41:02;;;;;;;9.73;7.15;;;;;;;32.30;39.95;101098.97;5037104;28;20022;-77
2022/06/23 09:43:48;;;;;;;13.02;7.20;;;;;;;32.38;40.07;101089.72;5027615;28;20057;-76
2022/06/23 09:46:40;;;;;;;13.38;7.47;;;;;;;32.20;40.69;101088.41;5033614;28;20025;-77
2022/06/23 09:49:22;;;;;;;17.42;9.52;;;;;;;31.56;42.64;101089.56;5033519;28;20040;-77
2022/06/23 09:52:05;;;;;;;13.75;7.18;;;;;;;31.82;43.38;101084.25;5033710;28;20115;-78
2022/06/23 09:55:03;;;;;;;11.40;7.50;;;;;;;31.72;43.04;101094.72;5029707;28;20477;-77
2022/06/23 09:57:50;;;;;;;11.75;7.88;;;;;;;32.05;43.43;101080.34;5033201;28;20046;-84
2022/06/23 10:00:25;;;;;;;11.60;7.53;;;;;;;32.26;42.07;101082.09;5033533;28;20029;-84
2022/06/23 10:02:56;;;;;;;11.90;7.25;;;;;;;32.44;40.41;101076.00;5035100;28;20033;-85
2022/06/23 10:05:45;;;;;;;17.00;7.80;;;;;;;32.40;42.06;101077.47;5034686;28;20021;-85
2022/06/23 10:08:22;;;;;;;14.15;7.57;;;;;;;32.93;40.24;101084.94;5033738;28;20048;-85
2022/06/23 10:11:06;;;;;;;12.95;7.68;;;;;;;32.61;39.97;101075.59;5013886;28;20030;-85
2022/06/23 10:13:40;;;;;;;13.85;7.47;;;;;;;32.80;40.73;101082.19;5029999;28;20021;-85
2022/06/23 10:16:39;;;;;;;12.48;7.57;;;;;;;32.69;40.68;101083.66;5033799;28;20033;-84
2022/06/23 10:19:29;;;;;;;13.27;7.88;;;;;;;32.37;40.46;101088.88;5032596;28;20485;-84
2022/06/23 10:22:10;;;;;;;12.27;7.43;;;;;;;32.62;43.02;101086.38;5027917;28;20505;-85
2022/06/23 10:24:49;;;;;;;14.35;7.78;;;;;;;33.11;40.91;101088.91;5014153;28;20041;-85
2022/06/23 10:27:21;;;;;;;12.77;7.30;;;;;;;33.44;40.73;101083.44;5033748;28;20033;-85
2022/06/23 10:30:24;;;;;;;15.93;7.68;;;;;;;33.22;39.63;101066.31;5035000;28;20192;-85
2022/06/23 10:33:14;;;;;;;12.88;5.78;;;;;;;32.61;41.58;101057.28;5034329;28;20079;-85
2022/06/23 10:35:40;;;;;;;14.82;6.65;;;;;;;31.81;42.96;101060.63;5020999;28;20038;-85
2022/06/23 10:38:25;;;;;;;12.73;6.68;;;;;;;31.60;44.52;101052.50;5033679;28;20036;-84
2022/06/23 10:41:17;;;;;;;10.68;5.82;;;;;;;31.96;44.78;101056.88;5032686;28;20531;-85
2022/06/23 10:43:48;;;;;;;12.95;6.22;;;;;;;32.00;44.50;101058.19;5033568;28;20021;-86
2022/06/23 10:46:23;;;;;;;12.32;6.75;;;;;;;32.32;43.25;101051.13;5034618;28;20105;-85
2022/06/23 10:49:12;;;;;;;11.98;6.32;;;;;;;32.56;42.75;101047.97;5033975;28;20037;-85
2022/06/23 10:52:00;;;;;;;15.40;6.68;;;;;;;31.99;43.69;101049.09;5033390;28;20037;-85
2022/06/23 10:54:43;;;;;;;14.55;5.60;;;;;;;32.33;44.19;101039.13;5025381;28;20040;-78
2022/06/23 10:57:36;;;;;;;13.60;6.40;;;;;;;33.09;41.33;101042.50;5028700;28;20050;-77
2022/06/23 11:00:10;;;;;;;15.30;5.72;;;;;;;33.27;40.71;101036.38;5028666;28;20041;-78
2022/06/23 11:03:03;;;;;;;12.45;6.78;;;;;;;33.20;40.37;101034.66;5031183;28;20036;-78
2022/06/23 11:05:29;;;;;;;12.30;5.75;;;;;;;33.26;39.73;101025.59;5032385;28;20029;-78
2022/06/23 11:08:21;;;;;;;12.88;6.03;;;;;;;33.16;41.66;101034.25;5022712;28;20565;-78
2022/06/23 11:10:55;;;;;;;12.52;6.43;;;;;;;31.91;42.40;101042.97;5036809;28;20056;-77
2022/06/23 11:13:35;;;;;;;9.88;5.32;;;;;;;32.54;43.60;101036.41;5035493;28;20465;-77
2022/06/23 11:16:03;;;;;;;10.63;5.37;;;;;;;33.22;41.95;101032.56;5033670;28;20497;-78
2022/06/23 11:18:50;;;;;;;13.73;6.18;;;;;;;33.75;40.27;101028.81;5018548;28;20041;-76
2022/06/23 11:21:40;;;;;;;15.85;6.88;;;;;;;33.84;39.15;101035.78;5032080;28;20021;-77
2022/06/23 11:24:11;;;;;;;;;;;;;;;33.46;38.52;101042.84;5032734;28;20029;-77
2022/06/23 11:27:13;;;;;;;10.35;5.35;;;;;;;33.95;38.66;101031.47;5031470;28;20399;-77
2022/06/23 11:30:04;;;;;;;15.55;5.80;;;;;;;33.97;38.06;101032.94;5029037;28;20025;-78
2022/06/23 11:33:22;;;;;;;9.15;5.00;;;;;;;33.97;39.21;101037.63;5029318;28;20029;-78
2022/06/23 11:36:20;;;;;;;13.32;6.65;;;;;;;32.88;39.45;101032.63;5007609;28;20064;-77
2022/06/23 11:39:17;;;;;;;14.35;6.32;;;;;;;32.66;40.71;101030.06;5023356;28;20044;-78
2022/06/23 11:41:43;;;;;;;16.40;7.03;;;;;;;32.44;40.34;101032.16;5030710;28;20029;-78
2022/06/23 11:44:44;;;;;;;11.52;6.32;;;;;;;32.08;42.09;101016.06;5027821;28;20087;-77
2022/06/23 11:47:25;;;;;;;13.43;5.68;;;;;;;32.11;42.11;101013.75;5029694;28;20093;-78
2022/06/23 11:50:22;;;;;;;12.10;6.22;;;;;;;31.42;42.93;101015.59;5044727;28;20087;-77
2022/06/23 11:52:54;;;;;;;14.27;6.05;;;;;;;31.23;44.92;101011.72;5030138;28;20044;-77
2022/06/23 11:55:25;;;;;;;10.98;6.03;;;;;;;30.89;45.26;101014.19;5021684;28;20032;-77
2022/06/23 11:58:15;;;;;;;14.95;5.53;;;;;;;31.11;45.26;101013.31;5028509;28;20050;-77
2022/06/23 12:01:06;;;;;;;16.60;6.00;;;;;;;31.79;44.40;101013.47;5031447;28;20025;-77
2022/06/23 12:03:31;;;;;;;;;;;;;;;32.08;42.44;101005.94;5013426;28;20034;-78
2022/06/23 12:06:04;;;;;;;11.57;5.27;;;;;;;32.78;42.40;101011.13;5031316;28;19913;-78
2022/06/23 12:08:29;;;;;;;11.60;5.65;;;;;;;32.63;41.46;101002.22;5018563;28;20029;-78
2022/06/23 12:10:55;;;;;;;12.73;6.90;;;;;;;32.09;41.26;100995.84;5030370;28;20075;-78
2022/06/23 12:13:25;;;;;;;11.30;6.05;;;;;;;31.78;42.96;100997.22;5026267;28;20075;-80